Time;durP1;ratioP1;P1;durP2;ratioP2;P2;SDS_P1;SDS_P2;PMS_P1;PMS_P2;Temp;Humidity;BMP_temperature;BMP_pressure;BME280_temperature;BME280_humidity;BME280_pressure;Samples;Min_cycle;Max_cycle;Signal;HPM_P1;HPM_P2
2022/05/28 00:00:19;;;;;;;15.57;2.97;;;;;;;8.95;93.94;101420.56;5012505;28;20183;-71
2022/05/28 00:02:45;;;;;;;25.30;3.43;;;;;;;8.95;94.26;101421.44;5011846;28;20187;-71
2022/05/28 00:05:12;;;;;;;9.30;2.40;;;;;;;8.91;93.99;101421.28;5012608;28;20183;-71
2022/05/28 00:07:37;;;;;;;12.30;3.20;;;;;;;8.90;94.10;101415.28;4994366;28;20219;-72
2022/05/28 00:10:03;;;;;;;18.00;3.00;;;;;;;8.94;93.36;101406.06;5012446;28;20190;-71
2022/05/28 00:12:31;;;;;;;14.23;2.90;;;;;;;8.91;93.76;101400.84;5012728;28;20191;-71
2022/05/28 00:14:57;;;;;;;13.87;3.27;;;;;;;8.90;93.59;101392.31;5012164;28;20219;-72
2022/05/28 00:17:23;;;;;;;9.70;2.80;;;;;;;8.93;93.24;101399.19;5011676;28;20230;-72
2022/05/28 00:19:50;;;;;;;13.73;2.30;;;;;;;8.95;92.72;101403.56;5011810;28;20714;-72
2022/05/28 00:22:15;;;;;;;14.57;2.93;;;;;;;9.02;92.97;101402.94;5012629;28;20183;-72
2022/05/28 00:24:40;;;;;;;9.70;2.30;;;;;;;9.08;92.85;101415.06;5001962;28;20196;-72
2022/05/28 00:27:06;;;;;;;11.83;2.77;;;;;;;9.17;92.70;101411.13;4992575;28;20215;-71
2022/05/28 00:29:31;;;;;;;15.83;2.87;;;;;;;9.22;92.94;101412.16;4992208;28;20183;-72
2022/05/28 00:31:56;;;;;;;13.77;2.70;;;;;;;9.22;92.46;101412.16;4992068;28;20307;-72
2022/05/28 00:34:22;;;;;;;8.50;2.30;;;;;;;9.26;91.89;101408.03;4992478;28;20227;-71
2022/05/28 00:36:47;;;;;;;11.67;2.93;;;;;;;9.28;91.98;101403.84;4991935;28;20208;-71
2022/05/28 00:39:13;;;;;;;12.70;3.03;;;;;;;9.33;91.68;101399.75;4992463;28;20556;-72
2022/05/28 00:41:38;;;;;;;11.80;2.37;;;;;;;9.35;92.38;101404.09;4991321;28;20608;-71
2022/05/28 00:44:05;;;;;;;9.80;2.13;;;;;;;9.36;92.56;101403.25;4992327;28;20222;-72
2022/05/28 00:46:31;;;;;;;12.60;2.73;;;;;;;9.39;92.77;101408.47;4991660;28;20219;-72
2022/05/28 00:49:00;;;;;;;11.50;2.70;;;;;;;9.41;92.78;101422.19;4992185;28;20279;-72
2022/05/28 00:51:29;;;;;;;9.00;2.83;;;;;;;9.39;92.79;101398.25;4992007;28;20670;-72
2022/05/28 00:53:58;;;;;;;16.20;2.50;;;;;;;9.33;92.95;101386.97;4991584;28;20208;-72
2022/05/28 00:56:24;;;;;;;9.70;2.13;;;;;;;9.23;92.04;101385.81;4991905;28;20211;-72
2022/05/28 00:58:50;;;;;;;10.97;1.90;;;;;;;9.23;89.50;101390.91;4991489;28;20187;-71
2022/05/28 01:01:20;;;;;;;10.63;2.07;;;;;;;9.25;89.71;101390.94;4991941;28;20195;-71
2022/05/28 01:03:54;;;;;;;10.93;2.63;;;;;;;9.26;89.48;101390.16;4989590;28;20192;-72
2022/05/28 01:06:29;;;;;;;11.13;2.27;;;;;;;9.28;90.13;101396.16;5002831;28;20210;-71
2022/05/28 01:09:06;;;;;;;10.73;2.43;;;;;;;9.29;91.97;101396.22;5010758;28;20210;-71
2022/05/28 01:12:12;;;;;;;15.70;2.40;;;;;;;9.33;92.06;101394.63;5011142;28;20225;-72
2022/05/28 01:14:46;;;;;;;11.17;2.83;;;;;;;9.35;91.98;101383.63;5010571;28;20226;-72
2022/05/28 01:17:28;;;;;;;12.23;2.80;;;;;;;9.36;92.04;101393.03;4993437;28;20277;-72
2022/05/28 01:20:06;;;;;;;15.37;2.67;;;;;;;9.35;93.23;101421.97;5009279;28;20351;-71
2022/05/28 01:22:44;;;;;;;9.87;1.60;;;;;;;8.97;90.59;101427.47;5010054;28;20245;-71
2022/05/28 01:25:23;;;;;;;4.93;1.37;;;;;;;8.84;91.81;101427.84;5011018;28;20187;-71
2022/05/28 01:28:00;;;;;;;3.77;1.30;;;;;;;8.74;89.44;101422.34;5011040;28;20207;-71
2022/05/28 01:30:26;;;;;;;5.07;1.30;;;;;;;8.63;89.83;101408.34;5010770;28;20407;-71
2022/05/28 01:32:54;;;;;;;3.03;0.90;;;;;;;8.60;89.31;101411.66;5010652;28;20617;-72
2022/05/28 01:35:22;;;;;;;3.30;1.10;;;;;;;8.55;89.94;101412.28;4993410;28;20590;-71
2022/05/28 01:37:49;;;;;;;5.33;1.43;;;;;;;8.54;90.77;101414.00;5010407;28;20257;-71
2022/05/28 01:40:16;;;;;;;4.60;1.60;;;;;;;8.50;91.16;101416.38;5010459;28;20227;-71
2022/05/28 01:42:46;;;;;;;4.40;1.13;;;;;;;8.53;91.35;101414.78;5010451;28;20183;-71
2022/05/28 01:45:14;;;;;;;6.33;1.77;;;;;;;8.60;91.75;101413.31;5010844;28;20202;-71
2022/05/28 01:47:42;;;;;;;4.50;1.70;;;;;;;8.57;91.56;101400.47;5010203;28;20203;-71
2022/05/28 01:50:09;;;;;;;4.70;1.60;;;;;;;8.58;92.31;101392.00;5010357;28;20179;-72
2022/05/28 01:52:35;;;;;;;4.73;1.70;;;;;;;8.63;91.32;101377.72;5010497;28;20726;-71
2022/05/28 01:55:02;;;;;;;5.13;1.63;;;;;;;8.64;91.54;101375.22;5008844;28;20203;-71
2022/05/28 01:57:27;;;;;;;3.63;1.40;;;;;;;8.66;91.57;101378.69;5010549;28;20210;-71
2022/05/28 01:59:53;;;;;;;3.07;1.43;;;;;;;8.68;91.76;101383.84;5009747;28;20573;-71
2022/05/28 02:02:18;;;;;;;3.87;1.70;;;;;;;8.66;92.48;101373.59;5010543;28;20598;-71
2022/05/28 02:04:47;;;;;;;3.90;1.60;;;;;;;8.61;93.23;101362.34;5009925;28;20253;-71
2022/05/28 02:07:13;;;;;;;4.17;1.37;;;;;;;8.60;92.54;101365.72;5008912;28;20226;-71
2022/05/28 02:09:45;;;;;;;3.77;1.43;;;;;;;8.62;92.85;101356.41;5010231;28;20187;-71
2022/05/28 02:12:40;;;;;;;5.20;1.90;;;;;;;8.65;92.71;101353.09;5009034;28;20700;-71
2022/05/28 02:15:44;;;;;;;4.40;1.67;;;;;;;8.72;92.45;101365.28;5010039;28;20246;-71
2022/05/28 02:18:25;;;;;;;4.17;1.50;;;;;;;8.72;92.69;101360.16;5010096;28;20215;-71
2022/05/28 02:21:07;;;;;;;3.33;1.20;;;;;;;8.70;92.67;101365.22;5009840;28;20186;-71
2022/05/28 02:24:02;;;;;;;5.67;1.57;;;;;;;8.70;92.87;101360.13;5010262;28;20534;-71
2022/05/28 02:26:36;;;;;;;5.90;1.30;;;;;;;8.67;91.67;101356.59;4988011;28;20262;-71
2022/05/28 02:29:03;;;;;;;6.50;1.40;;;;;;;8.65;92.50;101353.09;4990597;28;20278;-71
2022/05/28 02:31:32;;;;;;;3.63;1.23;;;;;;;8.64;92.98;101347.16;4990097;28;20276;-71
2022/05/28 02:33:59;;;;;;;5.17;1.10;;;;;;;8.63;91.33;101342.88;4990251;28;20604;-71
2022/05/28 02:36:24;;;;;;;3.77;1.20;;;;;;;8.63;91.46;101347.97;4988954;28;20693;-71
2022/05/28 02:38:50;;;;;;;4.60;1.20;;;;;;;8.66;91.90;101349.75;4989912;28;20195;-71
2022/05/28 02:41:18;;;;;;;5.87;1.27;;;;;;;8.68;91.65;101348.13;4989392;28;20191;-71
2022/05/28 02:43:44;;;;;;;6.03;1.60;;;;;;;8.71;91.11;101359.28;4988777;28;20203;-71
2022/05/28 02:46:09;;;;;;;3.53;0.90;;;;;;;8.76;91.27;101352.66;4990178;28;20184;-71
2022/05/28 02:48:35;;;;;;;2.37;1.07;;;;;;;8.74;92.17;101344.09;4990500;28;20199;-71
2022/05/28 02:51:21;;;;;;;4.20;1.87;;;;;;;8.75;91.55;101322.00;4994350;28;20185;-71
2022/05/28 02:53:49;;;;;;;4.40;1.37;;;;;;;8.78;93.13;101330.63;5029555;28;20297;-71
2022/05/28 02:56:15;;;;;;;3.30;1.30;;;;;;;8.79;92.62;101334.03;5028954;28;20376;-71
2022/05/28 02:58:41;;;;;;;5.33;1.37;;;;;;;8.80;92.44;101330.69;5029423;28;20205;-71
2022/05/28 03:01:24;;;;;;;3.33;1.47;;;;;;;8.79;92.86;101340.00;5028840;28;20564;-71
2022/05/28 03:03:49;;;;;;;5.33;1.60;;;;;;;8.85;92.22;101347.03;5029447;28;20182;-71
2022/05/28 03:06:15;;;;;;;3.93;1.30;;;;;;;8.85;92.17;101347.03;5026556;28;20230;-71
2022/05/28 03:08:41;;;;;;;3.97;1.30;;;;;;;8.84;92.21;101333.38;5029401;28;20197;-71
2022/05/28 03:11:06;;;;;;;5.03;1.50;;;;;;;8.84;91.98;101337.63;5028553;28;20640;-70
2022/05/28 03:13:31;;;;;;;8.23;2.13;;;;;;;8.83;92.16;101331.66;5028772;28;20210;-71
2022/05/28 03:15:56;;;;;;;8.60;1.83;;;;;;;8.78;91.49;101335.72;5029260;28;20559;-71
2022/05/28 03:18:22;;;;;;;4.53;1.60;;;;;;;8.83;91.84;101334.19;5010752;28;20575;-72
2022/05/28 03:20:47;;;;;;;5.00;1.60;;;;;;;8.78;92.31;101342.50;5028917;28;20692;-71
2022/05/28 03:23:12;;;;;;;5.53;1.73;;;;;;;8.77;92.05;101346.75;5011110;28;20679;-71
2022/05/28 03:25:38;;;;;;;7.87;1.50;;;;;;;8.71;91.55;101340.56;5028909;28;20190;-71
2022/05/28 03:28:03;;;;;;;5.27;1.37;;;;;;;8.73;91.96;101342.38;5010693;28;20217;-71
2022/05/28 03:30:29;;;;;;;4.40;1.63;;;;;;;8.74;91.50;101351.75;5028715;28;20190;-71
2022/05/28 03:32:54;;;;;;;6.63;1.60;;;;;;;8.78;91.96;101357.81;5029019;28;20205;-71
2022/05/28 03:35:19;;;;;;;6.50;1.73;;;;;;;8.82;92.62;101355.44;5010849;28;20225;-72
2022/05/28 03:37:45;;;;;;;8.00;1.90;;;;;;;8.89;92.38;101359.94;5029046;28;20241;-71
2022/05/28 03:40:11;;;;;;;7.50;1.70;;;;;;;8.98;91.34;101357.69;5028300;28;20194;-71
2022/05/28 03:42:36;;;;;;;6.50;1.53;;;;;;;9.06;92.17;101361.38;5029331;28;20190;-71
2022/05/28 03:45:01;;;;;;;7.43;1.77;;;;;;;9.01;90.93;101356.91;5011063;28;20818;-71
2022/05/28 03:47:27;;;;;;;7.30;2.00;;;;;;;9.07;91.02;101362.25;5011109;28;20232;-71
2022/05/28 03:49:52;;;;;;;8.07;1.93;;;;;;;9.05;92.78;101357.09;5028588;28;20277;-71
2022/05/28 03:52:17;;;;;;;8.07;1.93;;;;;;;9.08;92.40;101364.84;5028308;28;20273;-71
2022/05/28 03:54:45;;;;;;;10.60;2.70;;;;;;;9.10;93.09;101372.56;5033825;28;20341;-71
2022/05/28 03:57:20;;;;;;;7.73;2.03;;;;;;;9.13;93.02;101377.78;5031800;28;20252;-71
2022/05/28 03:59:46;;;;;;;7.03;2.50;;;;;;;9.17;92.24;101369.41;5032632;28;20541;-71
2022/05/28 04:02:11;;;;;;;7.60;2.07;;;;;;;9.18;93.09;101358.38;5031985;28;20193;-71
2022/05/28 04:04:37;;;;;;;6.33;2.07;;;;;;;9.12;91.87;101360.72;5032651;28;20186;-72
2022/05/28 04:07:03;;;;;;;7.27;2.13;;;;;;;9.14;92.69;101361.63;5031893;28;20221;-71
2022/05/28 04:09:28;;;;;;;9.90;2.33;;;;;;;9.13;93.05;101357.34;5032362;28;20189;-71
2022/05/28 04:11:53;;;;;;;10.07;2.50;;;;;;;9.14;91.95;101362.50;5032408;28;20182;-71
2022/05/28 04:14:19;;;;;;;10.63;2.40;;;;;;;9.16;92.04;101367.66;5031635;28;20657;-72
2022/05/28 04:16:44;;;;;;;7.90;2.40;;;;;;;9.14;91.85;101364.19;5032238;28;20868;-72
2022/05/28 04:19:09;;;;;;;8.77;2.50;;;;;;;9.14;92.38;101366.75;5031627;28;20533;-71
2022/05/28 04:21:36;;;;;;;9.97;2.23;;;;;;;9.23;92.48;101362.81;5031787;28;20235;-71
2022/05/28 04:24:02;;;;;;;9.97;2.10;;;;;;;9.33;91.84;101369.97;5031555;28;20568;-71
2022/05/28 04:26:27;;;;;;;8.17;2.03;;;;;;;9.49;91.24;101366.22;5031808;28;20275;-71
2022/05/28 04:28:52;;;;;;;10.40;2.40;;;;;;;9.48;91.79;101369.56;5031924;28;20691;-71
2022/05/28 04:31:18;;;;;;;9.50;2.07;;;;;;;9.45;92.01;101369.50;5031210;28;20809;-71
2022/05/28 04:33:43;;;;;;;8.60;1.90;;;;;;;9.49;91.66;101367.06;5031792;28;20582;-71
2022/05/28 04:36:08;;;;;;;12.30;2.40;;;;;;;9.55;92.22;101369.84;5031070;28;20199;-71
2022/05/28 04:38:33;;;;;;;10.90;2.93;;;;;;;9.70;91.86;101380.53;5030099;28;20182;-71
2022/05/28 04:40:59;;;;;;;8.50;2.20;;;;;;;9.64;92.38;101384.59;5012072;28;20178;-71
2022/05/28 04:43:24;;;;;;;9.83;2.50;;;;;;;9.66;92.38;101382.94;5031517;28;20217;-71
2022/05/28 04:45:49;;;;;;;11.77;2.80;;;;;;;9.67;93.39;101382.97;5031365;28;20825;-71
2022/05/28 04:48:16;;;;;;;8.43;2.10;;;;;;;9.57;92.81;101374.97;5013404;28;20216;-71
2022/05/28 04:50:41;;;;;;;10.97;3.00;;;;;;;9.55;93.05;101377.50;5031315;28;20762;-71
2022/05/28 04:53:06;;;;;;;12.67;2.57;;;;;;;9.51;92.74;101385.88;5012829;28;20186;-71
2022/05/28 04:55:32;;;;;;;9.53;2.63;;;;;;;9.67;92.57;101377.03;5013442;28;20187;-71
2022/05/28 04:57:58;;;;;;;8.13;1.83;;;;;;;9.73;92.17;101377.19;5030755;28;20221;-71
2022/05/28 05:00:25;;;;;;;9.47;2.40;;;;;;;10.01;91.63;101369.53;5031130;28;20225;-71
2022/05/28 05:02:50;;;;;;;7.80;2.27;;;;;;;9.96;90.59;101363.44;5030431;28;20543;-71
2022/05/28 05:05:16;;;;;;;6.77;2.30;;;;;;;9.91;90.35;101355.59;5030840;28;20221;-71
2022/05/28 05:07:41;;;;;;;9.13;2.67;;;;;;;9.88;91.38;101362.31;5031083;28;20270;-71
2022/05/28 05:10:07;;;;;;;9.27;2.10;;;;;;;10.16;90.97;101368.34;5030449;28;20647;-72
2022/05/28 05:12:33;;;;;;;10.70;2.70;;;;;;;10.34;90.78;101368.00;5031127;28;20233;-72
2022/05/28 05:14:58;;;;;;;7.57;2.27;;;;;;;10.43;89.68;101370.81;5030618;28;20213;-71
2022/05/28 05:17:23;;;;;;;9.13;2.43;;;;;;;10.51;89.87;101369.34;5031067;28;20264;-71
2022/05/28 05:19:49;;;;;;;7.70;2.07;;;;;;;10.59;89.28;101365.28;5030725;28;20194;-71
2022/05/28 05:22:14;;;;;;;7.57;2.60;;;;;;;10.64;88.72;101367.16;5031004;28;20232;-71
2022/05/28 05:24:39;;;;;;;9.27;2.10;;;;;;;10.69;89.33;101375.84;5030914;28;20295;-71
2022/05/28 05:27:05;;;;;;;9.77;2.10;;;;;;;10.82;88.98;101379.59;5030291;28;20238;-71
2022/05/28 05:29:31;;;;;;;7.03;2.03;;;;;;;10.88;88.50;101385.75;5030877;28;20735;-71
2022/05/28 05:31:56;;;;;;;7.23;2.00;;;;;;;10.99;87.90;101380.91;5012243;28;20259;-72
2022/05/28 05:34:22;;;;;;;9.17;2.17;;;;;;;11.14;87.63;101373.59;5030480;28;20256;-72
2022/05/28 05:36:47;;;;;;;6.63;1.80;;;;;;;11.26;87.24;101374.81;5029958;28;20206;-71
2022/05/28 05:39:13;;;;;;;7.90;1.97;;;;;;;11.45;86.09;101381.25;5026833;28;20199;-72
2022/05/28 05:41:39;;;;;;;7.70;2.10;;;;;;;11.39;86.31;101378.53;5029514;28;20186;-71
2022/05/28 05:44:06;;;;;;;6.57;2.40;;;;;;;11.36;86.82;101378.44;5029855;28;20213;-71
2022/05/28 05:46:32;;;;;;;10.33;2.17;;;;;;;11.61;86.29;101375.69;5028884;28;20359;-72
2022/05/28 05:48:58;;;;;;;9.27;2.43;;;;;;;11.79;85.86;101374.41;5029809;28;20269;-71
2022/05/28 05:51:23;;;;;;;10.27;2.47;;;;;;;11.98;85.79;101376.56;5030015;28;20676;-71
2022/05/28 05:53:48;;;;;;;12.60;2.90;;;;;;;12.13;84.39;101383.72;5029332;28;20213;-72
2022/05/28 05:56:14;;;;;;;13.13;3.00;;;;;;;12.15;83.11;101377.78;5029808;28;20182;-71
2022/05/28 05:58:39;;;;;;;10.77;2.50;;;;;;;12.33;83.34;101390.16;5029405;28;20198;-71
2022/05/28 06:01:05;;;;;;;9.77;2.60;;;;;;;12.22;84.68;101386.50;5029679;28;20245;-72
2022/05/28 06:03:31;;;;;;;10.87;3.27;;;;;;;11.99;84.13;101374.88;5029259;28;20744;-72
2022/05/28 06:06:01;;;;;;;13.40;3.37;;;;;;;12.01;83.98;101389.47;5029076;28;20214;-71
2022/05/28 06:08:28;;;;;;;13.57;3.40;;;;;;;12.08;84.45;101386.19;5029381;28;20194;-71
2022/05/28 06:10:53;;;;;;;12.03;2.90;;;;;;;12.05;83.28;101390.38;5026482;28;20225;-71
2022/05/28 06:13:18;;;;;;;11.37;2.93;;;;;;;12.04;82.79;101399.81;5026982;28;20225;-71
2022/05/28 06:15:45;;;;;;;14.17;3.13;;;;;;;11.98;83.12;101391.94;5027603;28;20186;-71
2022/05/28 06:18:12;;;;;;;14.90;3.37;;;;;;;11.93;83.45;101393.56;5029328;28;20218;-72
2022/05/28 06:20:38;;;;;;;14.23;3.17;;;;;;;11.78;82.90;101416.31;5029765;28;20214;-72
2022/05/28 06:23:03;;;;;;;13.83;3.40;;;;;;;11.78;83.79;101406.03;5029337;28;20217;-72
2022/05/28 06:25:28;;;;;;;10.53;3.00;;;;;;;11.89;83.37;101407.13;5029296;28;20191;-71
2022/05/28 06:27:54;;;;;;;14.23;2.97;;;;;;;12.05;81.38;101410.94;5028884;28;20218;-72
2022/05/28 06:30:20;;;;;;;9.30;3.00;;;;;;;12.46;80.15;101403.28;5029272;28;20190;-71
2022/05/28 06:32:45;;;;;;;8.93;2.70;;;;;;;12.75;77.91;101384.19;5028930;28;20190;-72
2022/05/28 06:35:11;;;;;;;10.07;2.80;;;;;;;13.22;77.19;101390.19;5029269;28;20210;-71
2022/05/28 06:37:37;;;;;;;10.47;3.30;;;;;;;13.44;75.98;101386.31;5011613;28;20222;-72
2022/05/28 06:40:03;;;;;;;11.23;3.13;;;;;;;13.81;74.42;101391.19;5029339;28;20175;-72
2022/05/28 06:42:29;;;;;;;12.37;2.17;;;;;;;13.95;73.99;101375.09;5028043;28;20656;-71
2022/05/28 06:44:55;;;;;;;10.17;2.50;;;;;;;13.84;69.89;101394.66;5028495;28;20182;-73
2022/05/28 06:47:21;;;;;;;8.63;2.30;;;;;;;13.89;70.75;101397.28;5029022;28;20202;-71
2022/05/28 06:51:01;;;;;;;9.03;2.50;;;;;;;14.09;71.51;101394.16;5028818;28;20201;-72
2022/05/28 06:52:31;;;;;;;8.03;2.27;;;;;;;14.40;72.15;101395.47;5028202;28;20276;-72
2022/05/28 06:54:57;;;;;;;8.10;2.40;;;;;;;14.44;68.22;101392.09;5027348;28;20210;-72
2022/05/28 06:57:22;;;;;;;9.10;2.20;;;;;;;14.64;67.16;101391.47;5028594;28;20265;-72
2022/05/28 06:59:47;;;;;;;7.27;2.30;;;;;;;14.29;67.63;101387.63;5028418;28;20718;-72
2022/05/28 07:02:13;;;;;;;13.33;2.57;;;;;;;14.50;64.84;101387.03;5015015;28;20625;-71
2022/05/28 07:04:38;;;;;;;13.20;2.90;;;;;;;14.37;65.56;101383.41;5009039;28;20715;-71
2022/05/28 07:07:05;;;;;;;11.33;2.60;;;;;;;14.76;65.52;101389.06;4990582;28;20210;-72
2022/05/28 07:09:30;;;;;;;10.27;2.53;;;;;;;15.03;63.27;101384.19;5007841;28;20285;-73
2022/05/28 07:11:56;;;;;;;8.10;2.10;;;;;;;15.01;61.79;101387.63;4990802;28;20643;-72
2022/05/28 07:14:22;;;;;;;12.33;2.93;;;;;;;15.03;61.14;101381.63;5048367;28;20698;-72
2022/05/28 07:16:47;;;;;;;13.53;3.13;;;;;;;15.28;62.97;101386.16;5048279;28;21035;-72
2022/05/28 07:19:12;;;;;;;10.70;2.50;;;;;;;14.80;61.78;101382.22;5047840;28;20196;-72
2022/05/28 07:21:37;;;;;;;11.03;2.50;;;;;;;14.90;60.88;101384.03;5010086;28;20190;-72
2022/05/28 07:24:03;;;;;;;10.17;2.60;;;;;;;15.25;60.72;101388.72;5028712;28;20178;-72
2022/05/28 07:26:28;;;;;;;8.77;2.80;;;;;;;14.83;59.76;101383.09;5029546;28;20205;-73
2022/05/28 07:28:55;;;;;;;8.83;2.20;;;;;;;15.21;60.67;101375.75;5032237;28;20202;-72
2022/05/28 07:31:21;;;;;;;10.20;2.60;;;;;;;15.14;59.84;101379.16;5014476;28;20186;-72
2022/05/28 07:33:47;;;;;;;9.00;2.40;;;;;;;15.24;58.35;101384.38;5032336;28;20272;-71
2022/05/28 07:36:20;;;;;;;12.20;2.77;;;;;;;15.48;58.35;101392.38;5032853;28;20182;-72
2022/05/28 07:38:46;;;;;;;11.40;2.93;;;;;;;15.48;56.76;101374.28;5015102;28;20190;-73
2022/05/28 07:41:19;;;;;;;14.07;2.63;;;;;;;15.55;57.16;101381.25;5032223;28;20178;-73
2022/05/28 07:43:45;;;;;;;6.73;1.90;;;;;;;16.09;55.98;101380.75;5032886;28;20182;-72
2022/05/28 07:46:31;;;;;;;8.83;2.73;;;;;;;16.29;55.67;101387.75;5032047;28;20554;-73
2022/05/28 07:48:59;;;;;;;10.63;2.40;;;;;;;15.97;57.66;101396.19;5032702;28;20248;-72
2022/05/28 07:51:24;;;;;;;10.60;2.77;;;;;;;16.09;56.54;101396.25;5014557;28;20257;-72
2022/05/28 07:53:50;;;;;;;10.00;2.73;;;;;;;15.33;57.93;101394.78;5032597;28;20675;-73
2022/05/28 07:56:16;;;;;;;12.20;2.43;;;;;;;14.28;61.29;101413.38;5032136;28;20191;-72
2022/05/28 07:58:42;;;;;;;5.43;2.00;;;;;;;14.03;66.89;101417.28;5032372;28;20197;-71
2022/05/28 08:01:16;;;;;;;6.40;1.93;;;;;;;14.07;69.83;101425.91;4993381;28;20603;-71
2022/05/28 08:03:41;;;;;;;8.63;1.90;;;;;;;13.85;68.67;101432.44;5012003;28;20269;-71
2022/05/28 08:06:07;;;;;;;8.07;2.27;;;;;;;13.90;69.83;101433.38;5015717;28;20380;-71
2022/05/28 08:08:32;;;;;;;9.50;3.00;;;;;;;14.04;68.89;101443.91;5042121;28;20181;-72
2022/05/28 08:10:57;;;;;;;7.53;2.10;;;;;;;14.75;67.35;101433.75;5030827;28;20625;-72
2022/05/28 08:13:24;;;;;;;7.40;2.10;;;;;;;14.57;67.68;101430.94;5031125;28;20655;-71
2022/05/28 08:15:52;;;;;;;9.80;2.40;;;;;;;14.72;66.57;101431.13;5032044;28;20236;-72
2022/05/28 08:18:19;;;;;;;7.87;2.10;;;;;;;14.73;65.35;101442.31;5031608;28;20221;-72
2022/05/28 08:23:29;;;;;;;7.20;2.10;;;;;;;14.80;65.32;101416.63;5031939;28;20273;-72
2022/05/28 08:25:54;;;;;;;8.00;2.40;;;;;;;15.10;64.20;101428.97;5031594;28;20630;-72
2022/05/28 08:28:20;;;;;;;7.97;2.57;;;;;;;15.64;61.81;101430.38;5014140;28;20222;-72
2022/05/28 08:30:46;;;;;;;10.17;2.77;;;;;;;15.75;60.81;101431.31;5031132;28;20197;-71
2022/05/28 08:33:15;;;;;;;9.10;2.30;;;;;;;15.68;61.16;101433.84;5031835;28;20232;-72
2022/05/28 08:35:42;;;;;;;10.77;3.00;;;;;;;15.94;61.13;101424.59;5031194;28;20704;-72
2022/05/28 08:38:10;;;;;;;11.73;2.77;;;;;;;15.99;59.70;101425.47;5030944;28;20847;-72
2022/05/28 08:40:56;;;;;;;11.07;2.90;;;;;;;15.91;57.77;101435.75;5031037;28;20236;-72
2022/05/28 08:43:26;;;;;;;6.60;2.13;;;;;;;15.98;60.53;101431.50;5031731;28;20182;-72
2022/05/28 08:45:52;;;;;;;11.10;2.67;;;;;;;16.06;56.76;101425.53;5031641;28;20273;-72
2022/05/28 08:48:22;;;;;;;8.90;2.77;;;;;;;15.87;58.04;101421.09;5031045;28;20313;-72
2022/05/28 08:50:54;;;;;;;10.70;2.37;;;;;;;15.58;58.32;101434.63;5031121;28;20177;-72
2022/05/28 08:53:26;;;;;;;10.70;3.17;;;;;;;16.07;57.06;101432.41;5031088;28;20279;-72
2022/05/28 08:55:53;;;;;;;11.17;2.63;;;;;;;16.37;57.17;101426.56;5031670;28;20202;-72
2022/05/28 08:58:23;;;;;;;12.00;2.97;;;;;;;15.34;60.81;101445.59;5031167;28;20217;-72
2022/05/28 09:00:56;;;;;;;11.77;3.20;;;;;;;14.72;66.99;101468.91;5013624;28;20185;-72
2022/05/28 09:03:26;;;;;;;8.87;2.73;;;;;;;13.93;68.13;101461.75;5030816;28;20182;-71
2022/05/28 09:06:08;;;;;;;12.37;3.00;;;;;;;13.77;70.39;101457.19;5030930;28;20187;-71
2022/05/28 09:08:41;;;;;;;11.47;2.80;;;;;;;13.79;71.06;101454.63;5012922;28;20186;-71
2022/05/28 09:11:13;;;;;;;9.97;3.00;;;;;;;14.15;71.09;101448.38;4996856;28;20198;-72
2022/05/28 09:13:43;;;;;;;10.57;2.80;;;;;;;14.43;67.84;101442.78;5013250;28;20314;-72
2022/05/28 09:16:27;;;;;;;12.73;2.50;;;;;;;15.09;67.02;101458.19;5030604;28;20190;-72
2022/05/28 09:18:55;;;;;;;14.33;2.80;;;;;;;15.79;68.33;101451.16;5031003;28;20256;-72
2022/05/28 09:21:21;;;;;;;9.00;2.50;;;;;;;15.57;64.79;101443.22;5030220;28;20268;-72
2022/05/28 09:24:01;;;;;;;9.50;2.40;;;;;;;15.26;66.60;101448.91;5030945;28;20632;-71
2022/05/28 09:26:32;;;;;;;7.40;2.60;;;;;;;14.61;69.44;101501.44;5030343;28;20553;-72
2022/05/28 09:28:57;;;;;;;9.60;2.33;;;;;;;13.38;74.49;101500.25;5030881;28;20174;-71
2022/05/28 09:31:52;;;;;;;4.67;1.90;;;;;;;13.18;77.00;101482.72;5030108;28;20186;-71
2022/05/28 09:34:42;;;;;;;10.57;2.40;;;;;;;13.25;74.45;101474.28;5012871;28;20577;-71
2022/05/28 09:37:35;;;;;;;11.53;3.20;;;;;;;13.76;71.61;101486.34;5012251;28;20311;-72
2022/05/28 09:40:17;;;;;;;9.20;2.60;;;;;;;14.31;69.27;101485.56;5030571;28;20196;-71
2022/05/28 09:42:57;;;;;;;9.63;2.37;;;;;;;15.37;66.02;101481.75;5029953;28;20617;-72
2022/05/28 09:45:41;;;;;;;11.17;2.43;;;;;;;15.72;67.14;101482.09;5012892;28;20628;-72
2022/05/28 09:48:17;;;;;;;9.90;2.03;;;;;;;16.94;66.64;101473.44;5029941;28;20718;-72
2022/05/28 09:50:42;;;;;;;15.00;2.63;;;;;;;16.80;63.52;101463.00;5011355;28;20690;-72
2022/05/28 09:56:24;;;;;;;7.87;2.40;;;;;;;16.28;64.69;101473.03;5030320;28;20198;-71
2022/05/28 09:58:50;;;;;;;9.70;2.63;;;;;;;15.87;63.45;101469.28;5029884;28;20290;-72
2022/05/28 10:01:24;;;;;;;13.67;3.00;;;;;;;15.75;63.60;101466.63;5027311;28;20226;-72
2022/05/28 10:06:47;;;;;;;10.60;2.50;;;;;;;14.36;67.74;101505.38;5029440;28;20202;-71
2022/05/28 10:09:18;;;;;;;9.67;2.23;;;;;;;13.62;72.47;101510.97;5012163;28;20196;-71
2022/05/28 10:11:59;;;;;;;9.00;2.07;;;;;;;13.30;73.61;101512.09;5029606;28;20174;-71
2022/05/28 10:14:28;;;;;;;12.23;2.77;;;;;;;13.37;73.30;101506.25;5026637;28;20245;-71
2022/05/28 10:16:56;;;;;;;11.43;3.07;;;;;;;13.76;74.58;101503.53;5039943;28;20207;-71
2022/05/28 10:19:42;;;;;;;13.07;2.93;;;;;;;13.97;75.12;101506.44;5028179;28;20182;-71
2022/05/28 10:22:19;;;;;;;9.43;2.67;;;;;;;14.04;74.59;101492.84;5036388;28;20178;-71
2022/05/28 10:24:47;;;;;;;9.37;2.20;;;;;;;15.15;71.13;101494.38;5037267;28;20186;-71
2022/05/28 10:27:27;;;;;;;12.70;3.13;;;;;;;15.98;72.14;101488.34;5035083;28;20214;-71
2022/05/28 10:29:54;;;;;;;11.40;3.53;;;;;;;16.45;66.93;101477.50;5039693;28;20640;-71
2022/05/28 10:32:34;;;;;;;10.90;3.40;;;;;;;15.42;67.11;101477.50;5040708;28;20206;-72
2022/05/28 10:35:07;;;;;;;10.37;2.40;;;;;;;14.82;66.46;101481.94;5036337;28;20228;-71
2022/05/28 10:37:33;;;;;;;13.33;2.93;;;;;;;14.67;66.07;101489.50;5041507;28;20222;-71
2022/05/28 10:40:08;;;;;;;9.20;2.47;;;;;;;14.56;65.94;101485.91;5038708;28;20195;-71
2022/05/28 10:42:34;;;;;;;9.63;2.53;;;;;;;14.49;63.54;101493.53;5037366;28;20186;-71
2022/05/28 10:45:00;;;;;;;12.30;2.27;;;;;;;14.42;63.69;101491.72;5022690;28;20806;-72
2022/05/28 10:47:37;;;;;;;10.50;2.63;;;;;;;14.09;66.29;101499.75;5029791;28;20217;-72
2022/05/28 10:50:30;;;;;;;11.07;2.67;;;;;;;14.12;67.89;101486.94;5037461;28;20236;-72
2022/05/28 10:53:08;;;;;;;8.73;2.83;;;;;;;14.43;67.42;101496.03;5038083;28;20272;-71
2022/05/28 10:55:44;;;;;;;13.03;2.67;;;;;;;15.42;64.33;101494.72;5033770;28;20259;-72
2022/05/28 10:58:30;;;;;;;9.53;2.60;;;;;;;16.06;62.50;101494.41;5040881;28;20697;-72
2022/05/28 11:01:05;;;;;;;9.30;2.80;;;;;;;15.46;62.87;101483.56;5034685;28;20194;-72
2022/05/28 11:03:49;;;;;;;9.17;2.40;;;;;;;14.90;65.96;101497.50;5042354;28;20204;-73
2022/05/28 11:06:26;;;;;;;9.57;2.27;;;;;;;14.44;68.73;101492.59;5039895;28;20246;-72
2022/05/28 11:09:08;;;;;;;12.13;2.40;;;;;;;14.16;67.43;101504.19;5007777;28;20189;-72
2022/05/28 11:11:58;;;;;;;10.60;2.60;;;;;;;14.14;66.50;101492.97;5042950;28;20669;-72
2022/05/28 11:14:39;;;;;;;8.07;2.47;;;;;;;14.40;65.86;101496.84;5040359;28;20234;-72
2022/05/28 11:17:26;;;;;;;13.13;2.93;;;;;;;15.29;64.25;101491.09;5022667;28;20221;-72
2022/05/28 11:20:06;;;;;;;8.40;2.70;;;;;;;16.09;62.85;101487.56;5037670;28;20261;-72
2022/05/28 11:22:58;;;;;;;11.83;3.20;;;;;;;16.40;61.50;101479.19;5040299;28;20246;-72
2022/05/28 11:25:39;;;;;;;8.03;2.33;;;;;;;16.91;57.89;101463.06;5040302;28;20173;-72
2022/05/28 11:28:35;;;;;;;9.83;2.53;;;;;;;16.71;58.72;101475.06;5039192;28;20209;-72
2022/05/28 11:31:12;;;;;;;9.83;2.33;;;;;;;16.04;60.33;101480.63;5041071;28;20636;-72
2022/05/28 11:33:42;;;;;;;9.03;2.30;;;;;;;15.46;59.95;101474.09;5041112;28;20217;-72
2022/05/28 11:36:20;;;;;;;9.67;2.63;;;;;;;15.03;60.44;101486.50;5040568;28;20218;-73
2022/05/28 11:39:02;;;;;;;8.83;2.53;;;;;;;15.06;61.71;101487.38;5044241;28;20266;-72
2022/05/28 11:41:35;;;;;;;8.70;2.63;;;;;;;15.89;61.02;101498.59;5034443;28;20205;-72
2022/05/28 11:44:10;;;;;;;13.33;2.97;;;;;;;16.61;60.09;101492.25;5041492;28;20183;-72
2022/05/28 11:46:45;;;;;;;6.67;2.00;;;;;;;16.70;59.39;101491.41;5041965;28;20305;-72